sensor_id;sensor_type;location;lat;lon;timestamp;pressure;altitude;pressure_sealevel;temperature
74533;BMP180;63012;51.096;-115.366;2023-06-22T04:10:11;87196.00;;;19.04
74533;BMP180;63012;51.096;-115.366;2023-06-22T04:12:38;87188.60;;;19.08
74533;BMP180;63012;51.096;-115.366;2023-06-22T04:15:06;87195.40;;;19.10
74533;BMP180;63012;51.096;-115.366;2023-06-22T04:17:33;87190.40;;;19.10
74533;BMP180;63012;51.096;-115.366;2023-06-22T04:20:01;87192.60;;;19.10
74533;BMP180;63012;51.096;-115.366;2023-06-22T04:22:28;87188.80;;;19.20
74533;BMP180;63012;51.096;-115.366;2023-06-22T04:24:55;87192.00;;;19.20
74533;BMP180;63012;51.096;-115.366;2023-06-22T04:27:23;87194.00;;;19.22
74533;BMP180;63012;51.096;-115.366;2023-06-22T04:29:49;87196.20;;;19.30
74533;BMP180;63012;51.096;-115.366;2023-06-22T04:32:17;87192.00;;;19.30
74533;BMP180;63012;51.096;-115.366;2023-06-22T04:34:44;87197.40;;;19.30
74533;BMP180;63012;51.096;-115.366;2023-06-22T04:37:12;87187.60;;;19.40
74533;BMP180;63012;51.096;-115.366;2023-06-22T04:39:43;87191.60;;;19.40
74533;BMP180;63012;51.096;-115.366;2023-06-22T04:42:11;87188.80;;;19.40
74533;BMP180;63012;51.096;-115.366;2023-06-22T04:44:39;87191.40;;;19.48
74533;BMP180;63012;51.096;-115.366;2023-06-22T04:47:06;87191.20;;;19.50
74533;BMP180;63012;51.096;-115.366;2023-06-22T04:49:36;87186.60;;;19.50
74533;BMP180;63012;51.096;-115.366;2023-06-22T04:52:10;87189.00;;;19.50
74533;BMP180;63012;51.096;-115.366;2023-06-22T04:54:40;87194.60;;;19.54
74533;BMP180;63012;51.096;-115.366;2023-06-22T04:57:14;87196.80;;;19.60
74533;BMP180;63012;51.096;-115.366;2023-06-22T04:59:43;87200.60;;;19.60
74533;BMP180;63012;51.096;-115.366;2023-06-22T05:02:10;87197.60;;;19.60
74533;BMP180;63012;51.096;-115.366;2023-06-22T05:04:37;87197.60;;;19.60
74533;BMP180;63012;51.096;-115.366;2023-06-22T05:07:07;87203.60;;;19.60
74533;BMP180;63012;51.096;-115.366;2023-06-22T05:09:35;87205.80;;;19.60
74533;BMP180;63012;51.096;-115.366;2023-06-22T05:12:03;87206.00;;;19.60
74533;BMP180;63012;51.096;-115.366;2023-06-22T05:14:31;87204.00;;;19.62
74533;BMP180;63012;51.096;-115.366;2023-06-22T05:16:58;87202.80;;;19.66
74533;BMP180;63012;51.096;-115.366;2023-06-22T05:19:25;87206.00;;;19.70
74533;BMP180;63012;51.096;-115.366;2023-06-22T05:22:00;87206.00;;;19.70
74533;BMP180;63012;51.096;-115.366;2023-06-22T05:24:26;87202.40;;;19.70
74533;BMP180;63012;51.096;-115.366;2023-06-22T05:26:54;87203.40;;;19.70
74533;BMP180;63012;51.096;-115.366;2023-06-22T05:29:21;87201.60;;;19.70
74533;BMP180;63012;51.096;-115.366;2023-06-22T05:31:49;87209.60;;;19.70
74533;BMP180;63012;51.096;-115.366;2023-06-22T05:34:16;87210.20;;;19.70
74533;BMP180;63012;51.096;-115.366;2023-06-22T05:36:43;87210.20;;;19.70
74533;BMP180;63012;51.096;-115.366;2023-06-22T05:39:14;87211.40;;;19.70
74533;BMP180;63012;51.096;-115.366;2023-06-22T05:41:42;87210.20;;;19.70
74533;BMP180;63012;51.096;-115.366;2023-06-22T05:44:12;87209.60;;;19.70
74533;BMP180;63012;51.096;-115.366;2023-06-22T05:46:44;87210.20;;;19.70
74533;BMP180;63012;51.096;-115.366;2023-06-22T05:49:14;87218.20;;;19.70
74533;BMP180;63012;51.096;-115.366;2023-06-22T05:51:42;87221.60;;;19.70
74533;BMP180;63012;51.096;-115.366;2023-06-22T05:54:09;87220.00;;;19.70
74533;BMP180;63012;51.096;-115.366;2023-06-22T05:56:36;87217.20;;;19.68
74533;BMP180;63012;51.096;-115.366;2023-06-22T05:59:04;87222.60;;;19.66
74533;BMP180;63012;51.096;-115.366;2023-06-22T06:01:31;87225.60;;;19.64
74533;BMP180;63012;51.096;-115.366;2023-06-22T06:04:02;87221.40;;;19.60
74533;BMP180;63012;51.096;-115.366;2023-06-22T06:06:30;87224.80;;;19.62
74533;BMP180;63012;51.096;-115.366;2023-06-22T06:08:57;87226.40;;;19.60
74533;BMP180;63012;51.096;-115.366;2023-06-22T06:11:25;87227.80;;;19.60
74533;BMP180;63012;51.096;-115.366;2023-06-22T06:13:52;87228.00;;;19.60
74533;BMP180;63012;51.096;-115.366;2023-06-22T06:16:19;87222.40;;;19.60
74533;BMP180;63012;51.096;-115.366;2023-06-22T06:18:46;87221.80;;;19.60
74533;BMP180;63012;51.096;-115.366;2023-06-22T06:21:15;87223.80;;;19.60
74533;BMP180;63012;51.096;-115.366;2023-06-22T06:23:42;87226.80;;;19.60
74533;BMP180;63012;51.096;-115.366;2023-06-22T06:26:09;87228.00;;;19.60
74533;BMP180;63012;51.096;-115.366;2023-06-22T06:28:36;87225.00;;;19.60
74533;BMP180;63012;51.096;-115.366;2023-06-22T06:31:03;87226.80;;;19.60
74533;BMP180;63012;51.096;-115.366;2023-06-22T06:33:34;87229.40;;;19.60
74533;BMP180;63012;51.096;-115.366;2023-06-22T06:36:01;87228.20;;;19.56
74533;BMP180;63012;51.096;-115.366;2023-06-22T06:38:30;87228.60;;;19.52
74533;BMP180;63012;51.096;-115.366;2023-06-22T06:40:58;87228.40;;;19.50
74533;BMP180;63012;51.096;-115.366;2023-06-22T06:43:25;87234.40;;;19.50
74533;BMP180;63012;51.096;-115.366;2023-06-22T06:45:53;87225.80;;;19.50
74533;BMP180;63012;51.096;-115.366;2023-06-22T06:48:20;87223.40;;;19.50
74533;BMP180;63012;51.096;-115.366;2023-06-22T06:50:47;87228.20;;;19.50
74533;BMP180;63012;51.096;-115.366;2023-06-22T06:53:14;87224.00;;;19.50
74533;BMP180;63012;51.096;-115.366;2023-06-22T06:55:41;87220.60;;;19.50
74533;BMP180;63012;51.096;-115.366;2023-06-22T06:58:08;87226.20;;;19.50
74533;BMP180;63012;51.096;-115.366;2023-06-22T07:00:36;87230.60;;;19.50
74533;BMP180;63012;51.096;-115.366;2023-06-22T07:03:03;87226.20;;;19.50
74533;BMP180;63012;51.096;-115.366;2023-06-22T07:05:31;87219.20;;;19.50
74533;BMP180;63012;51.096;-115.366;2023-06-22T07:07:58;87224.20;;;19.46
74533;BMP180;63012;51.096;-115.366;2023-06-22T07:10:25;87224.60;;;19.42
74533;BMP180;63012;51.096;-115.366;2023-06-22T07:12:52;87218.40;;;19.40
74533;BMP180;63012;51.096;-115.366;2023-06-22T07:15:19;87228.20;;;19.40
74533;BMP180;63012;51.096;-115.366;2023-06-22T07:17:46;87225.20;;;19.40
74533;BMP180;63012;51.096;-115.366;2023-06-22T07:20:13;87229.80;;;19.40
74533;BMP180;63012;51.096;-115.366;2023-06-22T07:22:42;87232.60;;;19.40
74533;BMP180;63012;51.096;-115.366;2023-06-22T07:25:10;87229.60;;;19.40
74533;BMP180;63012;51.096;-115.366;2023-06-22T07:27:46;87223.00;;;19.40
74533;BMP180;63012;51.096;-115.366;2023-06-22T07:30:15;87226.40;;;19.40
74533;BMP180;63012;51.096;-115.366;2023-06-22T07:32:41;87222.80;;;19.38
74533;BMP180;63012;51.096;-115.366;2023-06-22T07:35:08;87226.20;;;19.32
74533;BMP180;63012;51.096;-115.366;2023-06-22T07:37:36;87222.00;;;19.30
74533;BMP180;63012;51.096;-115.366;2023-06-22T07:40:03;87225.20;;;19.30
74533;BMP180;63012;51.096;-115.366;2023-06-22T07:42:32;87224.60;;;19.30
74533;BMP180;63012;51.096;-115.366;2023-06-22T07:44:59;87215.80;;;19.30
74533;BMP180;63012;51.096;-115.366;2023-06-22T07:47:27;87213.40;;;19.30
74533;BMP180;63012;51.096;-115.366;2023-06-22T07:49:59;87213.60;;;19.30
74533;BMP180;63012;51.096;-115.366;2023-06-22T07:52:28;87217.00;;;19.30
74533;BMP180;63012;51.096;-115.366;2023-06-22T07:54:55;87220.00;;;19.30
74533;BMP180;63012;51.096;-115.366;2023-06-22T07:57:22;87228.40;;;19.24
74533;BMP180;63012;51.096;-115.366;2023-06-22T07:59:49;87222.60;;;19.20
74533;BMP180;63012;51.096;-115.366;2023-06-22T08:02:16;87218.40;;;19.20
74533;BMP180;63012;51.096;-115.366;2023-06-22T08:04:43;87217.00;;;19.20
74533;BMP180;63012;51.096;-115.366;2023-06-22T08:07:11;87218.00;;;19.20
74533;BMP180;63012;51.096;-115.366;2023-06-22T08:09:38;87221.40;;;19.20
74533;BMP180;63012;51.096;-115.366;2023-06-22T08:12:05;87215.80;;;19.20
74533;BMP180;63012;51.096;-115.366;2023-06-22T08:14:33;87214.60;;;19.18
74533;BMP180;63012;51.096;-115.366;2023-06-22T08:17:03;87222.20;;;19.14
74533;BMP180;63012;51.096;-115.366;2023-06-22T08:19:30;87229.40;;;19.12
74533;BMP180;63012;51.096;-115.366;2023-06-22T08:21:57;87226.20;;;19.10
74533;BMP180;63012;51.096;-115.366;2023-06-22T08:24:24;87222.20;;;19.10
74533;BMP180;63012;51.096;-115.366;2023-06-22T08:26:52;87222.20;;;19.10
74533;BMP180;63012;51.096;-115.366;2023-06-22T08:29:19;87228.80;;;19.10
74533;BMP180;63012;51.096;-115.366;2023-06-22T08:31:46;87223.60;;;19.10
74533;BMP180;63012;51.096;-115.366;2023-06-22T08:34:13;87228.00;;;19.10
74533;BMP180;63012;51.096;-115.366;2023-06-22T08:36:40;87225.80;;;19.08
74533;BMP180;63012;51.096;-115.366;2023-06-22T08:39:11;87226.80;;;19.00
74533;BMP180;63012;51.096;-115.366;2023-06-22T08:41:38;87229.40;;;19.00
74533;BMP180;63012;51.096;-115.366;2023-06-22T08:44:05;87230.20;;;19.00
74533;BMP180;63012;51.096;-115.366;2023-06-22T08:46:33;87235.80;;;19.00
74533;BMP180;63012;51.096;-115.366;2023-06-22T08:49:00;87228.60;;;19.00
74533;BMP180;63012;51.096;-115.366;2023-06-22T08:51:27;87227.40;;;19.00
74533;BMP180;63012;51.096;-115.366;2023-06-22T08:53:55;87226.20;;;19.00
74533;BMP180;63012;51.096;-115.366;2023-06-22T08:56:22;87226.40;;;19.00
74533;BMP180;63012;51.096;-115.366;2023-06-22T08:58:49;87226.00;;;19.00
74533;BMP180;63012;51.096;-115.366;2023-06-22T09:01:16;87229.00;;;18.96
74533;BMP180;63012;51.096;-115.366;2023-06-22T09:03:43;87230.60;;;18.92
74533;BMP180;63012;51.096;-115.366;2023-06-22T09:06:10;87234.20;;;18.90
74533;BMP180;63012;51.096;-115.366;2023-06-22T09:08:37;87235.80;;;18.90
74533;BMP180;63012;51.096;-115.366;2023-06-22T09:11:04;87231.20;;;18.90
74533;BMP180;63012;51.096;-115.366;2023-06-22T09:13:33;87235.00;;;18.90
74533;BMP180;63012;51.096;-115.366;2023-06-22T09:16:01;87233.80;;;18.90
74533;BMP180;63012;51.096;-115.366;2023-06-22T09:18:28;87235.80;;;18.90
74533;BMP180;63012;51.096;-115.366;2023-06-22T09:20:55;87236.40;;;18.90
74533;BMP180;63012;51.096;-115.366;2023-06-22T09:23:22;87243.40;;;18.84
74533;BMP180;63012;51.096;-115.366;2023-06-22T09:25:49;87243.00;;;18.80
74533;BMP180;63012;51.096;-115.366;2023-06-22T09:28:16;87245.00;;;18.80
74533;BMP180;63012;51.096;-115.366;2023-06-22T09:30:44;87249.20;;;18.80
74533;BMP180;63012;51.096;-115.366;2023-06-22T09:33:13;87246.00;;;18.80
74533;BMP180;63012;51.096;-115.366;2023-06-22T09:35:40;87241.80;;;18.80
74533;BMP180;63012;51.096;-115.366;2023-06-22T09:38:07;87246.20;;;18.80
74533;BMP180;63012;51.096;-115.366;2023-06-22T09:40:34;87243.80;;;18.80
74533;BMP180;63012;51.096;-115.366;2023-06-22T09:43:06;87249.20;;;18.80
74533;BMP180;63012;51.096;-115.366;2023-06-22T09:45:33;87245.40;;;18.72
74533;BMP180;63012;51.096;-115.366;2023-06-22T09:48:00;87252.40;;;18.70
74533;BMP180;63012;51.096;-115.366;2023-06-22T09:50:27;87243.80;;;18.70
74533;BMP180;63012;51.096;-115.366;2023-06-22T09:52:54;87242.20;;;18.70
74533;BMP180;63012;51.096;-115.366;2023-06-22T09:55:22;87245.00;;;18.70
74533;BMP180;63012;51.096;-115.366;2023-06-22T09:57:49;87243.60;;;18.70
74533;BMP180;63012;51.096;-115.366;2023-06-22T10:00:17;87244.60;;;18.70
74533;BMP180;63012;51.096;-115.366;2023-06-22T10:02:47;87246.80;;;18.70
74533;BMP180;63012;51.096;-115.366;2023-06-22T10:05:14;87243.80;;;18.64
74533;BMP180;63012;51.096;-115.366;2023-06-22T10:07:41;87255.20;;;18.60
74533;BMP180;63012;51.096;-115.366;2023-06-22T10:10:12;87249.60;;;18.60
74533;BMP180;63012;51.096;-115.366;2023-06-22T10:12:57;87259.00;;;18.60
74533;BMP180;63012;51.096;-115.366;2023-06-22T10:15:29;87257.20;;;18.60
74533;BMP180;63012;51.096;-115.366;2023-06-22T10:17:56;87254.00;;;18.60
74533;BMP180;63012;51.096;-115.366;2023-06-22T10:20:23;87258.20;;;18.60
74533;BMP180;63012;51.096;-115.366;2023-06-22T10:22:52;87257.00;;;18.56
74533;BMP180;63012;51.096;-115.366;2023-06-22T10:25:19;87256.20;;;18.50
74533;BMP180;63012;51.096;-115.366;2023-06-22T10:27:46;87262.40;;;18.50
74533;BMP180;63012;51.096;-115.366;2023-06-22T10:30:13;87259.20;;;18.50
74533;BMP180;63012;51.096;-115.366;2023-06-22T10:32:42;87257.00;;;18.50
74533;BMP180;63012;51.096;-115.366;2023-06-22T10:35:10;87256.80;;;18.50
74533;BMP180;63012;51.096;-115.366;2023-06-22T10:37:40;87264.40;;;18.50
74533;BMP180;63012;51.096;-115.366;2023-06-22T10:40:10;87261.00;;;18.50
74533;BMP180;63012;51.096;-115.366;2023-06-22T10:42:37;87264.40;;;18.50
74533;BMP180;63012;51.096;-115.366;2023-06-22T10:45:05;87262.80;;;18.40
74533;BMP180;63012;51.096;-115.366;2023-06-22T10:47:32;87265.40;;;18.40
74533;BMP180;63012;51.096;-115.366;2023-06-22T10:49:59;87265.20;;;18.40
74533;BMP180;63012;51.096;-115.366;2023-06-22T10:52:26;87260.40;;;18.40
74533;BMP180;63012;51.096;-115.366;2023-06-22T10:54:53;87266.40;;;18.40
74533;BMP180;63012;51.096;-115.366;2023-06-22T10:57:21;87265.20;;;18.40
74533;BMP180;63012;51.096;-115.366;2023-06-22T10:59:48;87268.60;;;18.40
74533;BMP180;63012;51.096;-115.366;2023-06-22T11:02:16;87271.60;;;18.40
74533;BMP180;63012;51.096;-115.366;2023-06-22T11:04:43;87272.80;;;18.40
74533;BMP180;63012;51.096;-115.366;2023-06-22T11:07:10;87275.80;;;18.34
74533;BMP180;63012;51.096;-115.366;2023-06-22T11:09:37;87276.60;;;18.30
74533;BMP180;63012;51.096;-115.366;2023-06-22T11:12:06;87273.20;;;18.30
74533;BMP180;63012;51.096;-115.366;2023-06-22T11:14:33;87277.20;;;18.30
74533;BMP180;63012;51.096;-115.366;2023-06-22T11:17:01;87272.60;;;18.30
74533;BMP180;63012;51.096;-115.366;2023-06-22T11:19:28;87263.00;;;18.30
74533;BMP180;63012;51.096;-115.366;2023-06-22T11:21:55;87273.40;;;18.28
74533;BMP180;63012;51.096;-115.366;2023-06-22T11:24:23;87270.80;;;18.20
74533;BMP180;63012;51.096;-115.366;2023-06-22T11:26:50;87269.20;;;18.20
74533;BMP180;63012;51.096;-115.366;2023-06-22T11:29:17;87272.40;;;18.20
74533;BMP180;63012;51.096;-115.366;2023-06-22T11:31:44;87265.20;;;18.20
74533;BMP180;63012;51.096;-115.366;2023-06-22T11:34:11;87271.00;;;18.20
74533;BMP180;63012;51.096;-115.366;2023-06-22T11:36:38;87260.20;;;18.20
74533;BMP180;63012;51.096;-115.366;2023-06-22T11:39:05;87264.80;;;18.20
74533;BMP180;63012;51.096;-115.366;2023-06-22T11:41:32;87258.40;;;18.20
74533;BMP180;63012;51.096;-115.366;2023-06-22T11:43:59;87253.60;;;18.20
74533;BMP180;63012;51.096;-115.366;2023-06-22T11:46:26;87261.80;;;18.20
74533;BMP180;63012;51.096;-115.366;2023-06-22T11:48:53;87263.40;;;18.20
74533;BMP180;63012;51.096;-115.366;2023-06-22T11:51:21;87260.40;;;18.20
74533;BMP180;63012;51.096;-115.366;2023-06-22T11:53:48;87250.60;;;18.20
74533;BMP180;63012;51.096;-115.366;2023-06-22T11:56:15;87254.20;;;18.20
74533;BMP180;63012;51.096;-115.366;2023-06-22T11:58:42;87252.80;;;18.20
74533;BMP180;63012;51.096;-115.366;2023-06-22T12:01:09;87252.00;;;18.20
74533;BMP180;63012;51.096;-115.366;2023-06-22T12:03:36;87243.60;;;18.20
74533;BMP180;63012;51.096;-115.366;2023-06-22T12:06:03;87250.60;;;18.20
74533;BMP180;63012;51.096;-115.366;2023-06-22T12:08:30;87250.80;;;18.20
74533;BMP180;63012;51.096;-115.366;2023-06-22T12:10:56;87246.00;;;18.20
74533;BMP180;63012;51.096;-115.366;2023-06-22T12:13:23;87246.60;;;18.20
74533;BMP180;63012;51.096;-115.366;2023-06-22T12:15:50;87243.40;;;18.18
74533;BMP180;63012;51.096;-115.366;2023-06-22T12:18:18;87239.80;;;18.18
74533;BMP180;63012;51.096;-115.366;2023-06-22T12:20:48;87235.80;;;18.10
74533;BMP180;63012;51.096;-115.366;2023-06-22T12:23:15;87238.20;;;18.10
74533;BMP180;63012;51.096;-115.366;2023-06-22T12:25:44;87239.00;;;18.12
74533;BMP180;63012;51.096;-115.366;2023-06-22T12:28:12;87233.20;;;18.14
74533;BMP180;63012;51.096;-115.366;2023-06-22T12:30:39;87236.80;;;18.18
74533;BMP180;63012;51.096;-115.366;2023-06-22T12:33:06;87235.00;;;18.20
74533;BMP180;63012;51.096;-115.366;2023-06-22T12:35:33;87234.80;;;18.20
74533;BMP180;63012;51.096;-115.366;2023-06-22T12:38:00;87236.00;;;18.20
74533;BMP180;63012;51.096;-115.366;2023-06-22T12:40:29;87230.40;;;18.20
74533;BMP180;63012;51.096;-115.366;2023-06-22T12:42:56;87228.60;;;18.20
74533;BMP180;63012;51.096;-115.366;2023-06-22T12:45:23;87227.60;;;18.18
74533;BMP180;63012;51.096;-115.366;2023-06-22T12:47:51;87227.20;;;18.20
74533;BMP180;63012;51.096;-115.366;2023-06-22T12:50:18;87230.60;;;18.20
74533;BMP180;63012;51.096;-115.366;2023-06-22T12:52:45;87232.00;;;18.20
74533;BMP180;63012;51.096;-115.366;2023-06-22T12:55:13;87229.40;;;18.20
74533;BMP180;63012;51.096;-115.366;2023-06-22T12:57:40;87223.00;;;18.16
74533;BMP180;63012;51.096;-115.366;2023-06-22T13:00:07;87227.00;;;18.16
74533;BMP180;63012;51.096;-115.366;2023-06-22T13:02:36;87223.40;;;18.10
74533;BMP180;63012;51.096;-115.366;2023-06-22T13:05:03;87221.20;;;18.10
74533;BMP180;63012;51.096;-115.366;2023-06-22T13:07:33;87220.60;;;18.12
74533;BMP180;63012;51.096;-115.366;2023-06-22T13:10:00;87223.60;;;18.14
74533;BMP180;63012;51.096;-115.366;2023-06-22T13:12:28;87224.40;;;18.18
74533;BMP180;63012;51.096;-115.366;2023-06-22T13:14:55;87218.80;;;18.20
74533;BMP180;63012;51.096;-115.366;2023-06-22T13:17:22;87226.20;;;18.20
74533;BMP180;63012;51.096;-115.366;2023-06-22T13:19:49;87218.20;;;18.20
74533;BMP180;63012;51.096;-115.366;2023-06-22T13:22:33;87218.00;;;18.20
74533;BMP180;63012;51.096;-115.366;2023-06-22T13:25:07;87214.00;;;18.20
74533;BMP180;63012;51.096;-115.366;2023-06-22T13:27:42;87208.60;;;18.20
74533;BMP180;63012;51.096;-115.366;2023-06-22T13:30:10;87207.80;;;18.20
74533;BMP180;63012;51.096;-115.366;2023-06-22T13:32:37;87201.40;;;18.20
74533;BMP180;63012;51.096;-115.366;2023-06-22T13:35:05;87196.00;;;18.20
74533;BMP180;63012;51.096;-115.366;2023-06-22T13:37:31;87196.40;;;18.20
74533;BMP180;63012;51.096;-115.366;2023-06-22T13:39:59;87199.80;;;18.20
74533;BMP180;63012;51.096;-115.366;2023-06-22T13:42:26;87203.40;;;18.20
74533;BMP180;63012;51.096;-115.366;2023-06-22T13:44:53;87206.60;;;18.20
74533;BMP180;63012;51.096;-115.366;2023-06-22T13:47:21;87205.20;;;18.20
74533;BMP180;63012;51.096;-115.366;2023-06-22T13:49:48;87199.40;;;18.20
74533;BMP180;63012;51.096;-115.366;2023-06-22T13:52:15;87202.40;;;18.20
74533;BMP180;63012;51.096;-115.366;2023-06-22T13:54:42;87198.40;;;18.20
74533;BMP180;63012;51.096;-115.366;2023-06-22T13:57:09;87192.20;;;18.20
74533;BMP180;63012;51.096;-115.366;2023-06-22T13:59:36;87188.80;;;18.20
74533;BMP180;63012;51.096;-115.366;2023-06-22T14:02:03;87191.00;;;18.20
74533;BMP180;63012;51.096;-115.366;2023-06-22T14:04:30;87189.20;;;18.20
74533;BMP180;63012;51.096;-115.366;2023-06-22T14:06:57;87191.00;;;18.20
74533;BMP180;63012;51.096;-115.366;2023-06-22T14:09:24;87182.80;;;18.20
74533;BMP180;63012;51.096;-115.366;2023-06-22T14:11:53;87187.20;;;18.20
74533;BMP180;63012;51.096;-115.366;2023-06-22T14:14:21;87179.00;;;18.20
74533;BMP180;63012;51.096;-115.366;2023-06-22T14:16:48;87184.00;;;18.20
74533;BMP180;63012;51.096;-115.366;2023-06-22T14:19:18;87185.00;;;18.20
74533;BMP180;63012;51.096;-115.366;2023-06-22T14:21:45;87184.20;;;18.20
74533;BMP180;63012;51.096;-115.366;2023-06-22T14:24:12;87184.20;;;18.20
74533;BMP180;63012;51.096;-115.366;2023-06-22T14:26:39;87182.40;;;18.20
74533;BMP180;63012;51.096;-115.366;2023-06-22T14:29:06;87174.20;;;18.20
74533;BMP180;63012;51.096;-115.366;2023-06-22T14:31:33;87179.20;;;18.20
74533;BMP180;63012;51.096;-115.366;2023-06-22T14:34:01;87182.00;;;18.20
74533;BMP180;63012;51.096;-115.366;2023-06-22T14:36:30;87177.20;;;18.20
74533;BMP180;63012;51.096;-115.366;2023-06-22T14:38:57;87174.20;;;18.20
74533;BMP180;63012;51.096;-115.366;2023-06-22T14:41:24;87168.80;;;18.20
74533;BMP180;63012;51.096;-115.366;2023-06-22T14:43:51;87169.80;;;18.18
74533;BMP180;63012;51.096;-115.366;2023-06-22T14:46:19;87172.20;;;18.20
74533;BMP180;63012;51.096;-115.366;2023-06-22T14:48:47;87169.40;;;18.20
74533;BMP180;63012;51.096;-115.366;2023-06-22T14:51:15;87166.80;;;18.18
74533;BMP180;63012;51.096;-115.366;2023-06-22T14:53:43;87164.00;;;18.20
74533;BMP180;63012;51.096;-115.366;2023-06-22T14:56:11;87165.40;;;18.20
74533;BMP180;63012;51.096;-115.366;2023-06-22T14:58:41;87165.40;;;18.20
74533;BMP180;63012;51.096;-115.366;2023-06-22T15:01:17;87162.20;;;18.20
74533;BMP180;63012;51.096;-115.366;2023-06-22T15:03:45;87160.20;;;18.20
74533;BMP180;63012;51.096;-115.366;2023-06-22T15:06:11;87159.20;;;18.20
74533;BMP180;63012;51.096;-115.366;2023-06-22T15:08:41;87161.20;;;18.20
74533;BMP180;63012;51.096;-115.366;2023-06-22T15:11:09;87154.20;;;18.20
74533;BMP180;63012;51.096;-115.366;2023-06-22T15:13:40;87153.20;;;18.20
74533;BMP180;63012;51.096;-115.366;2023-06-22T15:16:08;87152.40;;;18.20
74533;BMP180;63012;51.096;-115.366;2023-06-22T15:18:36;87152.20;;;18.20
74533;BMP180;63012;51.096;-115.366;2023-06-22T15:21:07;87144.00;;;18.20
74533;BMP180;63012;51.096;-115.366;2023-06-22T15:23:34;87147.00;;;18.20
74533;BMP180;63012;51.096;-115.366;2023-06-22T15:26:04;87144.60;;;18.20
74533;BMP180;63012;51.096;-115.366;2023-06-22T15:28:34;87147.60;;;18.20
74533;BMP180;63012;51.096;-115.366;2023-06-22T15:31:03;87143.40;;;18.18
74533;BMP180;63012;51.096;-115.366;2023-06-22T15:33:31;87140.40;;;18.18
74533;BMP180;63012;51.096;-115.366;2023-06-22T15:35:59;87135.00;;;18.20
74533;BMP180;63012;51.096;-115.366;2023-06-22T15:38:30;87138.60;;;18.18
74533;BMP180;63012;51.096;-115.366;2023-06-22T15:40:57;87140.60;;;18.16
74533;BMP180;63012;51.096;-115.366;2023-06-22T15:43:25;87136.60;;;18.18
74533;BMP180;63012;51.096;-115.366;2023-06-22T15:45:52;87138.40;;;18.14
74533;BMP180;63012;51.096;-115.366;2023-06-22T15:48:21;87135.40;;;18.12
74533;BMP180;63012;51.096;-115.366;2023-06-22T15:50:49;87136.80;;;18.20
74533;BMP180;63012;51.096;-115.366;2023-06-22T15:53:16;87137.20;;;18.12
74533;BMP180;63012;51.096;-115.366;2023-06-22T15:55:43;87129.80;;;18.10
74533;BMP180;63012;51.096;-115.366;2023-06-22T15:58:10;87125.00;;;18.20
74533;BMP180;63012;51.096;-115.366;2023-06-22T16:00:39;87121.00;;;18.20
74533;BMP180;63012;51.096;-115.366;2023-06-22T16:03:06;87121.80;;;18.26
74533;BMP180;63012;51.096;-115.366;2023-06-22T16:05:33;87118.00;;;18.30
74533;BMP180;63012;51.096;-115.366;2023-06-22T16:08:00;87112.00;;;18.40
74533;BMP180;63012;51.096;-115.366;2023-06-22T16:10:27;87101.80;;;18.50
74533;BMP180;63012;51.096;-115.366;2023-06-22T16:12:54;87101.00;;;18.50
74533;BMP180;63012;51.096;-115.366;2023-06-22T16:15:21;87092.80;;;18.60
74533;BMP180;63012;51.096;-115.366;2023-06-22T16:17:48;87098.00;;;18.60
74533;BMP180;63012;51.096;-115.366;2023-06-22T16:20:15;87095.20;;;18.60
74533;BMP180;63012;51.096;-115.366;2023-06-22T16:22:44;87097.60;;;18.60
74533;BMP180;63012;51.096;-115.366;2023-06-22T16:25:13;87092.80;;;18.70
74533;BMP180;63012;51.096;-115.366;2023-06-22T16:27:40;87094.40;;;18.76
74533;BMP180;63012;51.096;-115.366;2023-06-22T16:30:07;87093.00;;;18.80
74533;BMP180;63012;51.096;-115.366;2023-06-22T16:32:34;87091.60;;;18.80
74533;BMP180;63012;51.096;-115.366;2023-06-22T16:35:02;87093.80;;;18.82
74533;BMP180;63012;51.096;-115.366;2023-06-22T16:37:29;87095.40;;;18.88
74533;BMP180;63012;51.096;-115.366;2023-06-22T16:39:56;87095.60;;;18.90
74533;BMP180;63012;51.096;-115.366;2023-06-22T16:42:24;87098.60;;;18.90
74533;BMP180;63012;51.096;-115.366;2023-06-22T16:44:51;87097.20;;;18.90
74533;BMP180;63012;51.096;-115.366;2023-06-22T16:47:18;87089.00;;;18.90
74533;BMP180;63012;51.096;-115.366;2023-06-22T16:49:45;87089.80;;;18.90
74533;BMP180;63012;51.096;-115.366;2023-06-22T16:52:12;87094.00;;;18.90
74533;BMP180;63012;51.096;-115.366;2023-06-22T16:54:40;87093.00;;;18.90
74533;BMP180;63012;51.096;-115.366;2023-06-22T16:57:08;87091.20;;;19.00
74533;BMP180;63012;51.096;-115.366;2023-06-22T16:59:35;87087.60;;;19.00
74533;BMP180;63012;51.096;-115.366;2023-06-22T17:02:03;87080.40;;;19.00
74533;BMP180;63012;51.096;-115.366;2023-06-22T17:04:33;87089.80;;;19.00
74533;BMP180;63012;51.096;-115.366;2023-06-22T17:07:17;87085.20;;;19.00
74533;BMP180;63012;51.096;-115.366;2023-06-22T17:09:50;87080.60;;;19.00
74533;BMP180;63012;51.096;-115.366;2023-06-22T17:12:17;87076.00;;;19.04
74533;BMP180;63012;51.096;-115.366;2023-06-22T17:14:52;87075.20;;;19.08
74533;BMP180;63012;51.096;-115.366;2023-06-22T17:17:19;87068.60;;;19.10
74533;BMP180;63012;51.096;-115.366;2023-06-22T17:19:50;87063.40;;;19.10
74533;BMP180;63012;51.096;-115.366;2023-06-22T17:22:18;87064.80;;;19.10
74533;BMP180;63012;51.096;-115.366;2023-06-22T17:24:46;87062.20;;;19.10
74533;BMP180;63012;51.096;-115.366;2023-06-22T17:27:14;87058.80;;;19.10
74533;BMP180;63012;51.096;-115.366;2023-06-22T17:30:07;87066.80;;;19.10
74533;BMP180;63012;51.096;-115.366;2023-06-22T17:32:35;87057.80;;;19.10
74533;BMP180;63012;51.096;-115.366;2023-06-22T17:35:04;87057.20;;;19.10
74533;BMP180;63012;51.096;-115.366;2023-06-22T17:37:52;87057.40;;;19.10
74533;BMP180;63012;51.096;-115.366;2023-06-22T17:40:24;87056.40;;;19.10
74533;BMP180;63012;51.096;-115.366;2023-06-22T17:43:05;87052.00;;;19.10
74533;BMP180;63012;51.096;-115.366;2023-06-22T17:45:42;87055.00;;;19.10